sensor_id;sensor_type;location;lat;lon;timestamp;P1;durP1;ratioP1;P2;durP2;ratioP2
4214;SDS011;2121;48.062;7.850;2023-05-10T00:00:26;1.80;;;1.70;;
4214;SDS011;2121;48.062;7.850;2023-05-10T00:02:52;6.40;;;1.83;;
4214;SDS011;2121;48.062;7.850;2023-05-10T00:05:17;1.83;;;1.70;;
4214;SDS011;2121;48.062;7.850;2023-05-10T00:07:43;3.63;;;1.80;;
4214;SDS011;2121;48.062;7.850;2023-05-10T00:10:10;1.50;;;1.40;;
4214;SDS011;2121;48.062;7.850;2023-05-10T00:12:36;2.50;;;1.80;;
4214;SDS011;2121;48.062;7.850;2023-05-10T00:15:02;5.10;;;2.30;;
4214;SDS011;2121;48.062;7.850;2023-05-10T00:17:29;1.93;;;1.83;;
4214;SDS011;2121;48.062;7.850;2023-05-10T00:19:54;2.30;;;1.53;;
4214;SDS011;2121;48.062;7.850;2023-05-10T00:22:20;1.63;;;1.53;;
4214;SDS011;2121;48.062;7.850;2023-05-10T00:24:46;1.80;;;1.70;;
4214;SDS011;2121;48.062;7.850;2023-05-10T00:27:12;2.70;;;1.50;;
4214;SDS011;2121;48.062;7.850;2023-05-10T00:29:38;1.60;;;1.50;;
4214;SDS011;2121;48.062;7.850;2023-05-10T00:32:03;1.43;;;1.37;;
4214;SDS011;2121;48.062;7.850;2023-05-10T00:34:29;1.90;;;1.80;;
4214;SDS011;2121;48.062;7.850;2023-05-10T00:36:55;2.53;;;1.83;;
4214;SDS011;2121;48.062;7.850;2023-05-10T00:39:21;1.67;;;1.57;;
4214;SDS011;2121;48.062;7.850;2023-05-10T00:41:47;2.03;;;1.93;;
4214;SDS011;2121;48.062;7.850;2023-05-10T00:44:12;2.23;;;1.80;;
4214;SDS011;2121;48.062;7.850;2023-05-10T00:46:38;1.60;;;1.60;;
4214;SDS011;2121;48.062;7.850;2023-05-10T00:49:04;2.67;;;1.43;;
4214;SDS011;2121;48.062;7.850;2023-05-10T00:51:30;1.70;;;1.60;;
4214;SDS011;2121;48.062;7.850;2023-05-10T00:53:56;2.57;;;1.83;;
4214;SDS011;2121;48.062;7.850;2023-05-10T00:56:22;1.57;;;1.30;;
4214;SDS011;2121;48.062;7.850;2023-05-10T00:58:49;3.57;;;1.87;;
4214;SDS011;2121;48.062;7.850;2023-05-10T01:01:15;1.83;;;1.73;;
4214;SDS011;2121;48.062;7.850;2023-05-10T01:03:41;1.50;;;1.40;;
4214;SDS011;2121;48.062;7.850;2023-05-10T01:06:07;2.17;;;1.77;;
4214;SDS011;2121;48.062;7.850;2023-05-10T01:08:34;3.93;;;2.03;;
4214;SDS011;2121;48.062;7.850;2023-05-10T01:11:01;1.80;;;1.70;;
4214;SDS011;2121;48.062;7.850;2023-05-10T01:15:59;2.60;;;1.67;;
4214;SDS011;2121;48.062;7.850;2023-05-10T01:18:27;2.80;;;1.70;;
4214;SDS011;2121;48.062;7.850;2023-05-10T01:20:59;1.97;;;1.40;;
4214;SDS011;2121;48.062;7.850;2023-05-10T01:24:33;2.53;;;1.97;;
4214;SDS011;2121;48.062;7.850;2023-05-10T01:29:59;9.10;;;1.90;;
4214;SDS011;2121;48.062;7.850;2023-05-10T01:38:02;2.07;;;1.97;;
4214;SDS011;2121;48.062;7.850;2023-05-10T01:44:07;1.67;;;1.57;;
4214;SDS011;2121;48.062;7.850;2023-05-10T01:47:10;3.10;;;1.93;;
4214;SDS011;2121;48.062;7.850;2023-05-10T01:49:40;1.70;;;1.60;;
4214;SDS011;2121;48.062;7.850;2023-05-10T01:52:15;1.77;;;1.63;;
4214;SDS011;2121;48.062;7.850;2023-05-10T01:54:49;2.37;;;2.17;;
4214;SDS011;2121;48.062;7.850;2023-05-10T01:57:21;1.70;;;1.60;;
4214;SDS011;2121;48.062;7.850;2023-05-10T01:59:51;2.23;;;2.07;;
4214;SDS011;2121;48.062;7.850;2023-05-10T02:02:21;1.70;;;1.60;;
4214;SDS011;2121;48.062;7.850;2023-05-10T02:04:49;3.00;;;1.73;;
4214;SDS011;2121;48.062;7.850;2023-05-10T02:07:16;2.10;;;2.00;;
4214;SDS011;2121;48.062;7.850;2023-05-10T02:09:44;5.53;;;1.80;;
4214;SDS011;2121;48.062;7.850;2023-05-10T02:12:14;1.80;;;1.70;;
4214;SDS011;2121;48.062;7.850;2023-05-10T02:14:41;1.93;;;1.83;;
4214;SDS011;2121;48.062;7.850;2023-05-10T02:17:08;2.33;;;2.13;;
4214;SDS011;2121;48.062;7.850;2023-05-10T02:19:35;2.07;;;1.90;;
4214;SDS011;2121;48.062;7.850;2023-05-10T02:22:04;2.40;;;2.20;;
4214;SDS011;2121;48.062;7.850;2023-05-10T02:24:30;2.03;;;1.93;;
4214;SDS011;2121;48.062;7.850;2023-05-10T02:26:58;2.43;;;2.03;;
4214;SDS011;2121;48.062;7.850;2023-05-10T02:29:25;2.10;;;2.00;;
4214;SDS011;2121;48.062;7.850;2023-05-10T02:31:53;2.20;;;2.00;;
4214;SDS011;2121;48.062;7.850;2023-05-10T02:34:25;2.00;;;1.90;;
4214;SDS011;2121;48.062;7.850;2023-05-10T02:36:53;4.90;;;2.37;;
4214;SDS011;2121;48.062;7.850;2023-05-10T02:39:20;3.03;;;2.50;;
4214;SDS011;2121;48.062;7.850;2023-05-10T02:41:48;3.37;;;1.67;;
4214;SDS011;2121;48.062;7.850;2023-05-10T02:44:16;1.87;;;1.77;;
4214;SDS011;2121;48.062;7.850;2023-05-10T02:46:45;2.80;;;1.77;;
4214;SDS011;2121;48.062;7.850;2023-05-10T02:49:11;5.63;;;2.07;;
4214;SDS011;2121;48.062;7.850;2023-05-10T02:51:40;1.80;;;1.70;;
4214;SDS011;2121;48.062;7.850;2023-05-10T02:54:15;2.10;;;2.00;;
4214;SDS011;2121;48.062;7.850;2023-05-10T02:56:53;2.60;;;2.40;;
4214;SDS011;2121;48.062;7.850;2023-05-10T02:59:25;6.83;;;1.93;;
4214;SDS011;2121;48.062;7.850;2023-05-10T03:01:51;2.70;;;2.00;;
4214;SDS011;2121;48.062;7.850;2023-05-10T03:04:17;2.10;;;2.00;;
4214;SDS011;2121;48.062;7.850;2023-05-10T03:06:43;2.10;;;2.00;;
4214;SDS011;2121;48.062;7.850;2023-05-10T03:09:09;2.07;;;1.97;;
4214;SDS011;2121;48.062;7.850;2023-05-10T03:11:55;2.03;;;1.93;;
4214;SDS011;2121;48.062;7.850;2023-05-10T03:17:30;2.10;;;2.00;;
4214;SDS011;2121;48.062;7.850;2023-05-10T03:20:08;1.80;;;1.70;;
4214;SDS011;2121;48.062;7.850;2023-05-10T03:22:44;2.00;;;1.90;;
4214;SDS011;2121;48.062;7.850;2023-05-10T03:25:12;2.10;;;2.00;;
4214;SDS011;2121;48.062;7.850;2023-05-10T03:27:42;3.73;;;1.80;;
4214;SDS011;2121;48.062;7.850;2023-05-10T03:30:10;2.30;;;2.20;;
4214;SDS011;2121;48.062;7.850;2023-05-10T03:32:37;2.20;;;2.10;;
4214;SDS011;2121;48.062;7.850;2023-05-10T03:35:07;2.00;;;1.90;;
4214;SDS011;2121;48.062;7.850;2023-05-10T03:37:34;1.90;;;1.80;;
4214;SDS011;2121;48.062;7.850;2023-05-10T03:40:00;2.20;;;2.03;;
4214;SDS011;2121;48.062;7.850;2023-05-10T03:42:27;2.30;;;2.10;;
4214;SDS011;2121;48.062;7.850;2023-05-10T03:44:53;2.13;;;2.00;;
4214;SDS011;2121;48.062;7.850;2023-05-10T03:47:19;2.00;;;1.90;;
4214;SDS011;2121;48.062;7.850;2023-05-10T03:49:44;2.10;;;2.00;;
4214;SDS011;2121;48.062;7.850;2023-05-10T03:52:10;2.33;;;2.13;;
4214;SDS011;2121;48.062;7.850;2023-05-10T03:54:36;2.20;;;2.10;;
4214;SDS011;2121;48.062;7.850;2023-05-10T03:57:02;4.10;;;2.07;;
4214;SDS011;2121;48.062;7.850;2023-05-10T03:59:28;2.00;;;1.90;;
4214;SDS011;2121;48.062;7.850;2023-05-10T04:01:54;3.80;;;2.00;;
4214;SDS011;2121;48.062;7.850;2023-05-10T04:04:21;3.27;;;1.80;;
4214;SDS011;2121;48.062;7.850;2023-05-10T04:06:47;2.33;;;2.13;;
4214;SDS011;2121;48.062;7.850;2023-05-10T04:09:12;2.23;;;2.03;;
4214;SDS011;2121;48.062;7.850;2023-05-10T04:11:39;7.13;;;2.70;;
4214;SDS011;2121;48.062;7.850;2023-05-10T04:14:04;2.03;;;1.93;;
4214;SDS011;2121;48.062;7.850;2023-05-10T04:16:30;8.13;;;2.23;;
4214;SDS011;2121;48.062;7.850;2023-05-10T04:18:56;2.40;;;2.30;;
4214;SDS011;2121;48.062;7.850;2023-05-10T04:21:22;1.90;;;1.80;;
4214;SDS011;2121;48.062;7.850;2023-05-10T04:23:48;2.30;;;2.20;;
4214;SDS011;2121;48.062;7.850;2023-05-10T04:26:13;2.10;;;2.00;;
4214;SDS011;2121;48.062;7.850;2023-05-10T04:28:40;3.63;;;2.00;;
4214;SDS011;2121;48.062;7.850;2023-05-10T04:31:06;2.30;;;2.10;;
4214;SDS011;2121;48.062;7.850;2023-05-10T04:33:34;2.30;;;2.20;;
4214;SDS011;2121;48.062;7.850;2023-05-10T04:36:01;2.80;;;2.60;;
4214;SDS011;2121;48.062;7.850;2023-05-10T04:38:28;2.00;;;1.90;;
4214;SDS011;2121;48.062;7.850;2023-05-10T04:40:54;3.87;;;1.90;;
4214;SDS011;2121;48.062;7.850;2023-05-10T04:43:19;4.83;;;2.20;;
4214;SDS011;2121;48.062;7.850;2023-05-10T04:45:45;2.20;;;2.10;;
4214;SDS011;2121;48.062;7.850;2023-05-10T04:48:11;2.03;;;1.93;;
4214;SDS011;2121;48.062;7.850;2023-05-10T04:50:37;2.00;;;1.90;;
4214;SDS011;2121;48.062;7.850;2023-05-10T04:53:04;2.33;;;2.23;;
4214;SDS011;2121;48.062;7.850;2023-05-10T04:55:30;2.00;;;1.90;;
4214;SDS011;2121;48.062;7.850;2023-05-10T04:57:55;3.70;;;2.20;;
4214;SDS011;2121;48.062;7.850;2023-05-10T05:00:22;2.97;;;2.33;;
4214;SDS011;2121;48.062;7.850;2023-05-10T05:02:48;2.40;;;2.30;;
4214;SDS011;2121;48.062;7.850;2023-05-10T05:05:14;2.30;;;2.20;;
4214;SDS011;2121;48.062;7.850;2023-05-10T05:07:40;2.50;;;2.30;;
4214;SDS011;2121;48.062;7.850;2023-05-10T05:10:06;2.90;;;2.70;;
4214;SDS011;2121;48.062;7.850;2023-05-10T05:12:33;3.27;;;2.50;;
4214;SDS011;2121;48.062;7.850;2023-05-10T05:15:00;2.63;;;2.43;;
4214;SDS011;2121;48.062;7.850;2023-05-10T05:17:26;4.07;;;2.47;;
4214;SDS011;2121;48.062;7.850;2023-05-10T05:19:52;3.53;;;2.30;;
4214;SDS011;2121;48.062;7.850;2023-05-10T05:22:17;2.20;;;2.10;;
4214;SDS011;2121;48.062;7.850;2023-05-10T05:24:44;4.00;;;2.00;;
4214;SDS011;2121;48.062;7.850;2023-05-10T05:27:10;2.57;;;2.37;;
4214;SDS011;2121;48.062;7.850;2023-05-10T05:29:36;2.00;;;1.90;;
4214;SDS011;2121;48.062;7.850;2023-05-10T05:32:02;2.17;;;2.07;;
4214;SDS011;2121;48.062;7.850;2023-05-10T05:34:28;2.57;;;2.47;;
4214;SDS011;2121;48.062;7.850;2023-05-10T05:36:53;2.60;;;2.40;;
4214;SDS011;2121;48.062;7.850;2023-05-10T05:39:20;2.70;;;2.50;;
4214;SDS011;2121;48.062;7.850;2023-05-10T05:41:46;2.23;;;1.80;;
4214;SDS011;2121;48.062;7.850;2023-05-10T05:44:11;8.93;;;2.53;;
4214;SDS011;2121;48.062;7.850;2023-05-10T05:46:37;2.00;;;1.90;;
4214;SDS011;2121;48.062;7.850;2023-05-10T05:49:03;2.30;;;2.00;;
4214;SDS011;2121;48.062;7.850;2023-05-10T05:51:28;2.70;;;2.50;;
4214;SDS011;2121;48.062;7.850;2023-05-10T05:53:54;3.37;;;2.53;;
4214;SDS011;2121;48.062;7.850;2023-05-10T05:56:23;2.83;;;2.63;;
4214;SDS011;2121;48.062;7.850;2023-05-10T05:58:50;3.60;;;2.30;;
4214;SDS011;2121;48.062;7.850;2023-05-10T06:01:16;2.70;;;2.50;;
4214;SDS011;2121;48.062;7.850;2023-05-10T06:03:41;3.30;;;3.00;;
4214;SDS011;2121;48.062;7.850;2023-05-10T06:06:07;2.70;;;1.93;;
4214;SDS011;2121;48.062;7.850;2023-05-10T06:08:33;2.40;;;2.20;;
4214;SDS011;2121;48.062;7.850;2023-05-10T06:10:59;1.93;;;1.83;;
4214;SDS011;2121;48.062;7.850;2023-05-10T06:13:26;3.57;;;2.40;;
4214;SDS011;2121;48.062;7.850;2023-05-10T06:15:57;2.80;;;2.40;;
4214;SDS011;2121;48.062;7.850;2023-05-10T06:18:23;13.57;;;2.90;;
4214;SDS011;2121;48.062;7.850;2023-05-10T06:20:50;3.03;;;2.70;;
4214;SDS011;2121;48.062;7.850;2023-05-10T06:23:16;3.70;;;2.50;;
4214;SDS011;2121;48.062;7.850;2023-05-10T06:25:42;2.83;;;2.53;;
4214;SDS011;2121;48.062;7.850;2023-05-10T06:28:08;2.43;;;2.10;;
4214;SDS011;2121;48.062;7.850;2023-05-10T06:30:35;2.43;;;2.00;;
4214;SDS011;2121;48.062;7.850;2023-05-10T06:33:02;4.40;;;2.20;;
4214;SDS011;2121;48.062;7.850;2023-05-10T06:35:28;3.20;;;2.10;;
4214;SDS011;2121;48.062;7.850;2023-05-10T06:37:54;5.30;;;2.33;;
4214;SDS011;2121;48.062;7.850;2023-05-10T06:40:20;3.03;;;2.90;;
4214;SDS011;2121;48.062;7.850;2023-05-10T06:42:46;2.30;;;2.10;;
4214;SDS011;2121;48.062;7.850;2023-05-10T06:45:13;3.87;;;2.27;;
4214;SDS011;2121;48.062;7.850;2023-05-10T06:47:40;8.53;;;2.57;;
4214;SDS011;2121;48.062;7.850;2023-05-10T06:50:07;3.23;;;2.13;;
4214;SDS011;2121;48.062;7.850;2023-05-10T06:52:34;7.30;;;2.57;;
4214;SDS011;2121;48.062;7.850;2023-05-10T06:54:59;3.20;;;2.40;;
4214;SDS011;2121;48.062;7.850;2023-05-10T06:57:25;5.53;;;2.83;;
4214;SDS011;2121;48.062;7.850;2023-05-10T06:59:51;4.30;;;2.20;;
4214;SDS011;2121;48.062;7.850;2023-05-10T07:02:17;5.80;;;2.37;;
4214;SDS011;2121;48.062;7.850;2023-05-10T07:04:43;2.83;;;2.63;;
4214;SDS011;2121;48.062;7.850;2023-05-10T07:07:09;2.37;;;2.17;;
4214;SDS011;2121;48.062;7.850;2023-05-10T07:09:35;3.83;;;2.53;;
4214;SDS011;2121;48.062;7.850;2023-05-10T07:12:00;3.87;;;2.30;;
4214;SDS011;2121;48.062;7.850;2023-05-10T07:14:27;2.50;;;2.40;;
4214;SDS011;2121;48.062;7.850;2023-05-10T07:16:53;2.73;;;2.50;;
4214;SDS011;2121;48.062;7.850;2023-05-10T07:19:18;2.97;;;2.77;;
4214;SDS011;2121;48.062;7.850;2023-05-10T07:21:44;4.20;;;2.60;;
4214;SDS011;2121;48.062;7.850;2023-05-10T07:24:10;3.53;;;2.40;;
4214;SDS011;2121;48.062;7.850;2023-05-10T07:26:36;2.67;;;2.47;;
4214;SDS011;2121;48.062;7.850;2023-05-10T07:29:02;2.83;;;2.63;;
4214;SDS011;2121;48.062;7.850;2023-05-10T07:31:28;2.57;;;2.37;;
4214;SDS011;2121;48.062;7.850;2023-05-10T07:33:53;4.00;;;2.40;;
4214;SDS011;2121;48.062;7.850;2023-05-10T07:36:19;3.23;;;2.50;;
4214;SDS011;2121;48.062;7.850;2023-05-10T07:38:45;3.07;;;2.77;;
4214;SDS011;2121;48.062;7.850;2023-05-10T07:41:11;3.80;;;3.03;;
4214;SDS011;2121;48.062;7.850;2023-05-10T07:43:37;4.53;;;2.90;;
4214;SDS011;2121;48.062;7.850;2023-05-10T07:46:03;3.20;;;2.23;;
4214;SDS011;2121;48.062;7.850;2023-05-10T07:48:30;3.93;;;2.73;;
4214;SDS011;2121;48.062;7.850;2023-05-10T07:50:56;4.70;;;2.30;;
4214;SDS011;2121;48.062;7.850;2023-05-10T07:53:22;5.77;;;3.23;;
4214;SDS011;2121;48.062;7.850;2023-05-10T07:55:51;2.90;;;2.33;;
4214;SDS011;2121;48.062;7.850;2023-05-10T07:58:19;2.50;;;2.17;;
4214;SDS011;2121;48.062;7.850;2023-05-10T08:00:45;2.83;;;2.60;;
4214;SDS011;2121;48.062;7.850;2023-05-10T08:03:11;2.13;;;2.03;;
4214;SDS011;2121;48.062;7.850;2023-05-10T08:05:36;2.13;;;1.93;;
4214;SDS011;2121;48.062;7.850;2023-05-10T08:08:02;2.47;;;2.30;;
4214;SDS011;2121;48.062;7.850;2023-05-10T08:10:28;9.70;;;2.63;;
4214;SDS011;2121;48.062;7.850;2023-05-10T08:12:53;6.40;;;2.70;;
4214;SDS011;2121;48.062;7.850;2023-05-10T08:15:19;2.13;;;1.93;;
4214;SDS011;2121;48.062;7.850;2023-05-10T08:17:45;6.10;;;2.50;;
4214;SDS011;2121;48.062;7.850;2023-05-10T08:20:11;3.73;;;2.17;;
4214;SDS011;2121;48.062;7.850;2023-05-10T08:22:37;2.00;;;1.90;;
4214;SDS011;2121;48.062;7.850;2023-05-10T08:25:03;2.00;;;1.90;;
4214;SDS011;2121;48.062;7.850;2023-05-10T08:27:30;4.40;;;2.17;;
4214;SDS011;2121;48.062;7.850;2023-05-10T08:29:55;6.70;;;3.37;;
4214;SDS011;2121;48.062;7.850;2023-05-10T08:32:21;3.03;;;2.40;;
4214;SDS011;2121;48.062;7.850;2023-05-10T08:34:47;3.90;;;2.07;;
4214;SDS011;2121;48.062;7.850;2023-05-10T08:37:12;2.10;;;2.00;;
4214;SDS011;2121;48.062;7.850;2023-05-10T08:39:38;1.90;;;1.60;;
4214;SDS011;2121;48.062;7.850;2023-05-10T08:42:04;3.93;;;2.00;;
4214;SDS011;2121;48.062;7.850;2023-05-10T08:44:31;4.77;;;1.80;;
4214;SDS011;2121;48.062;7.850;2023-05-10T08:47:01;2.70;;;2.27;;
4214;SDS011;2121;48.062;7.850;2023-05-10T08:49:30;2.00;;;1.90;;
4214;SDS011;2121;48.062;7.850;2023-05-10T08:51:58;7.73;;;3.93;;
4214;SDS011;2121;48.062;7.850;2023-05-10T08:54:29;2.30;;;2.20;;
4214;SDS011;2121;48.062;7.850;2023-05-10T08:56:56;3.83;;;2.13;;
4214;SDS011;2121;48.062;7.850;2023-05-10T08:59:23;2.30;;;2.10;;
4214;SDS011;2121;48.062;7.850;2023-05-10T09:01:48;5.90;;;2.07;;
4214;SDS011;2121;48.062;7.850;2023-05-10T09:04:15;1.57;;;1.53;;
4214;SDS011;2121;48.062;7.850;2023-05-10T09:06:41;2.50;;;1.60;;
4214;SDS011;2121;48.062;7.850;2023-05-10T09:09:06;3.03;;;1.90;;
4214;SDS011;2121;48.062;7.850;2023-05-10T09:11:32;12.50;;;2.30;;
4214;SDS011;2121;48.062;7.850;2023-05-10T09:13:58;5.20;;;1.80;;
4214;SDS011;2121;48.062;7.850;2023-05-10T09:16:24;7.27;;;2.37;;
4214;SDS011;2121;48.062;7.850;2023-05-10T09:18:50;2.60;;;1.60;;
4214;SDS011;2121;48.062;7.850;2023-05-10T09:21:16;5.03;;;1.87;;
4214;SDS011;2121;48.062;7.850;2023-05-10T09:23:45;2.83;;;1.80;;
4214;SDS011;2121;48.062;7.850;2023-05-10T09:26:11;2.20;;;2.10;;
4214;SDS011;2121;48.062;7.850;2023-05-10T09:28:50;2.60;;;2.07;;
4214;SDS011;2121;48.062;7.850;2023-05-10T09:31:21;3.50;;;2.03;;
4214;SDS011;2121;48.062;7.850;2023-05-10T09:33:48;2.60;;;2.17;;
4214;SDS011;2121;48.062;7.850;2023-05-10T09:36:15;2.57;;;1.87;;
4214;SDS011;2121;48.062;7.850;2023-05-10T09:38:45;1.70;;;1.60;;
4214;SDS011;2121;48.062;7.850;2023-05-10T09:41:19;3.00;;;2.00;;
4214;SDS011;2121;48.062;7.850;2023-05-10T09:43:48;2.93;;;2.03;;
4214;SDS011;2121;48.062;7.850;2023-05-10T09:46:15;3.23;;;1.80;;
4214;SDS011;2121;48.062;7.850;2023-05-10T09:48:45;4.17;;;1.90;;
4214;SDS011;2121;48.062;7.850;2023-05-10T09:51:24;3.30;;;1.70;;
4214;SDS011;2121;48.062;7.850;2023-05-10T09:54:14;2.60;;;1.87;;
4214;SDS011;2121;48.062;7.850;2023-05-10T09:56:41;2.00;;;1.63;;
4214;SDS011;2121;48.062;7.850;2023-05-10T09:59:09;1.93;;;1.83;;
4214;SDS011;2121;48.062;7.850;2023-05-10T10:01:37;2.20;;;1.87;;
4214;SDS011;2121;48.062;7.850;2023-05-10T10:04:03;9.30;;;2.40;;
4214;SDS011;2121;48.062;7.850;2023-05-10T10:06:38;2.47;;;2.30;;
4214;SDS011;2121;48.062;7.850;2023-05-10T10:09:05;5.50;;;2.50;;
4214;SDS011;2121;48.062;7.850;2023-05-10T10:11:33;4.17;;;2.00;;
4214;SDS011;2121;48.062;7.850;2023-05-10T10:14:00;2.00;;;1.90;;
4214;SDS011;2121;48.062;7.850;2023-05-10T10:16:28;4.10;;;1.70;;
4214;SDS011;2121;48.062;7.850;2023-05-10T10:18:55;1.77;;;1.67;;
4214;SDS011;2121;48.062;7.850;2023-05-10T10:21:21;2.50;;;2.17;;
4214;SDS011;2121;48.062;7.850;2023-05-10T10:23:48;2.00;;;1.60;;
4214;SDS011;2121;48.062;7.850;2023-05-10T10:26:14;5.30;;;1.90;;
4214;SDS011;2121;48.062;7.850;2023-05-10T10:31:36;1.80;;;1.70;;
4214;SDS011;2121;48.062;7.850;2023-05-10T10:34:10;3.70;;;1.70;;
4214;SDS011;2121;48.062;7.850;2023-05-10T10:36:53;3.47;;;2.20;;
4214;SDS011;2121;48.062;7.850;2023-05-10T10:39:21;6.53;;;1.77;;
4214;SDS011;2121;48.062;7.850;2023-05-10T10:41:51;4.50;;;2.07;;
4214;SDS011;2121;48.062;7.850;2023-05-10T10:50:02;7.70;;;2.70;;
4214;SDS011;2121;48.062;7.850;2023-05-10T10:54:59;2.80;;;2.27;;
4214;SDS011;2121;48.062;7.850;2023-05-10T11:03:05;8.50;;;4.70;;
4214;SDS011;2121;48.062;7.850;2023-05-10T11:05:38;1.90;;;1.80;;
4214;SDS011;2121;48.062;7.850;2023-05-10T11:10:36;8.63;;;1.63;;
4214;SDS011;2121;48.062;7.850;2023-05-10T11:13:06;1.50;;;1.40;;
4214;SDS011;2121;48.062;7.850;2023-05-10T11:15:37;1.70;;;1.60;;
4214;SDS011;2121;48.062;7.850;2023-05-10T11:18:20;1.57;;;1.47;;
4214;SDS011;2121;48.062;7.850;2023-05-10T11:20:58;2.17;;;1.97;;
4214;SDS011;2121;48.062;7.850;2023-05-10T11:23:34;3.50;;;1.50;;
4214;SDS011;2121;48.062;7.850;2023-05-10T11:26:35;1.80;;;1.70;;
4214;SDS011;2121;48.062;7.850;2023-05-10T11:29:02;1.70;;;1.60;;
4214;SDS011;2121;48.062;7.850;2023-05-10T11:31:29;2.97;;;1.90;;
4214;SDS011;2121;48.062;7.850;2023-05-10T11:33:56;1.90;;;1.33;;
4214;SDS011;2121;48.062;7.850;2023-05-10T11:36:24;3.10;;;1.90;;
4214;SDS011;2121;48.062;7.850;2023-05-10T11:38:57;2.43;;;1.60;;
4214;SDS011;2121;48.062;7.850;2023-05-10T11:41:23;1.70;;;1.60;;
4214;SDS011;2121;48.062;7.850;2023-05-10T11:43:50;5.27;;;1.67;;
4214;SDS011;2121;48.062;7.850;2023-05-10T11:46:18;2.63;;;1.43;;
4214;SDS011;2121;48.062;7.850;2023-05-10T11:48:50;4.43;;;1.37;;
4214;SDS011;2121;48.062;7.850;2023-05-10T11:51:21;2.67;;;1.60;;
4214;SDS011;2121;48.062;7.850;2023-05-10T11:53:49;2.60;;;1.27;;
4214;SDS011;2121;48.062;7.850;2023-05-10T11:56:20;2.50;;;2.30;;
4214;SDS011;2121;48.062;7.850;2023-05-10T11:58:51;1.60;;;1.50;;
4214;SDS011;2121;48.062;7.850;2023-05-10T12:01:22;1.77;;;1.60;;
4214;SDS011;2121;48.062;7.850;2023-05-10T12:03:50;1.77;;;1.67;;
4214;SDS011;2121;48.062;7.850;2023-05-10T12:06:18;3.83;;;1.53;;
4214;SDS011;2121;48.062;7.850;2023-05-10T12:08:46;4.70;;;1.73;;
4214;SDS011;2121;48.062;7.850;2023-05-10T12:11:13;1.93;;;1.20;;
4214;SDS011;2121;48.062;7.850;2023-05-10T12:13:41;1.20;;;1.10;;
4214;SDS011;2121;48.062;7.850;2023-05-10T12:16:18;2.30;;;1.40;;
4214;SDS011;2121;48.062;7.850;2023-05-10T12:18:48;2.27;;;1.43;;
4214;SDS011;2121;48.062;7.850;2023-05-10T12:21:18;1.30;;;1.30;;
4214;SDS011;2121;48.062;7.850;2023-05-10T12:23:46;4.03;;;1.50;;
4214;SDS011;2121;48.062;7.850;2023-05-10T12:26:15;2.20;;;1.47;;
4214;SDS011;2121;48.062;7.850;2023-05-10T12:28:41;1.10;;;1.10;;
4214;SDS011;2121;48.062;7.850;2023-05-10T12:31:07;2.57;;;1.43;;
4214;SDS011;2121;48.062;7.850;2023-05-10T12:33:41;1.30;;;1.20;;
4214;SDS011;2121;48.062;7.850;2023-05-10T12:36:09;2.60;;;1.40;;
4214;SDS011;2121;48.062;7.850;2023-05-10T12:41:08;1.83;;;1.53;;
4214;SDS011;2121;48.062;7.850;2023-05-10T12:43:40;1.53;;;1.43;;
4214;SDS011;2121;48.062;7.850;2023-05-10T12:48:37;5.60;;;1.47;;
4214;SDS011;2121;48.062;7.850;2023-05-10T12:51:04;1.53;;;1.20;;
4214;SDS011;2121;48.062;7.850;2023-05-10T12:53:34;2.97;;;1.70;;
4214;SDS011;2121;48.062;7.850;2023-05-10T12:56:01;4.30;;;1.30;;
4214;SDS011;2121;48.062;7.850;2023-05-10T12:58:27;5.80;;;1.57;;
4214;SDS011;2121;48.062;7.850;2023-05-10T13:00:52;3.57;;;1.40;;
4214;SDS011;2121;48.062;7.850;2023-05-10T13:03:18;1.30;;;1.30;;
4214;SDS011;2121;48.062;7.850;2023-05-10T13:05:44;2.63;;;1.50;;
4214;SDS011;2121;48.062;7.850;2023-05-10T13:08:10;1.50;;;1.40;;
4214;SDS011;2121;48.062;7.850;2023-05-10T13:10:36;1.73;;;1.63;;
4214;SDS011;2121;48.062;7.850;2023-05-10T13:13:01;6.10;;;1.47;;
4214;SDS011;2121;48.062;7.850;2023-05-10T13:15:27;1.43;;;1.33;;
4214;SDS011;2121;48.062;7.850;2023-05-10T13:17:53;1.17;;;1.00;;
4214;SDS011;2121;48.062;7.850;2023-05-10T13:20:21;3.37;;;1.40;;
4214;SDS011;2121;48.062;7.850;2023-05-10T13:22:46;1.07;;;1.07;;
4214;SDS011;2121;48.062;7.850;2023-05-10T13:25:12;1.10;;;1.10;;
4214;SDS011;2121;48.062;7.850;2023-05-10T13:27:41;1.10;;;1.10;;
4214;SDS011;2121;48.062;7.850;2023-05-10T13:30:07;2.10;;;1.10;;
4214;SDS011;2121;48.062;7.850;2023-05-10T13:32:34;1.63;;;1.00;;
4214;SDS011;2121;48.062;7.850;2023-05-10T13:35:00;1.10;;;1.10;;
4214;SDS011;2121;48.062;7.850;2023-05-10T13:37:28;2.40;;;1.33;;
4214;SDS011;2121;48.062;7.850;2023-05-10T13:40:00;1.53;;;1.43;;
4214;SDS011;2121;48.062;7.850;2023-05-10T13:42:26;1.50;;;1.40;;
4214;SDS011;2121;48.062;7.850;2023-05-10T13:44:52;1.00;;;1.00;;
4214;SDS011;2121;48.062;7.850;2023-05-10T13:47:18;1.00;;;1.00;;
4214;SDS011;2121;48.062;7.850;2023-05-10T13:49:43;1.37;;;1.00;;
4214;SDS011;2121;48.062;7.850;2023-05-10T13:52:09;0.93;;;0.93;;
4214;SDS011;2121;48.062;7.850;2023-05-10T13:54:38;3.63;;;1.43;;
4214;SDS011;2121;48.062;7.850;2023-05-10T13:57:04;0.93;;;0.93;;
4214;SDS011;2121;48.062;7.850;2023-05-10T13:59:30;1.10;;;1.10;;
4214;SDS011;2121;48.062;7.850;2023-05-10T14:01:59;1.10;;;1.10;;
4214;SDS011;2121;48.062;7.850;2023-05-10T14:04:27;1.30;;;1.20;;
4214;SDS011;2121;48.062;7.850;2023-05-10T14:06:54;1.37;;;1.10;;
4214;SDS011;2121;48.062;7.850;2023-05-10T14:09:19;1.20;;;1.10;;
4214;SDS011;2121;48.062;7.850;2023-05-10T14:11:45;2.40;;;1.20;;
4214;SDS011;2121;48.062;7.850;2023-05-10T14:14:11;0.90;;;0.90;;
4214;SDS011;2121;48.062;7.850;2023-05-10T14:16:41;0.90;;;0.90;;
4214;SDS011;2121;48.062;7.850;2023-05-10T14:19:09;1.10;;;1.00;;
4214;SDS011;2121;48.062;7.850;2023-05-10T14:21:36;0.83;;;0.83;;
4214;SDS011;2121;48.062;7.850;2023-05-10T14:24:02;0.87;;;0.87;;
4214;SDS011;2121;48.062;7.850;2023-05-10T14:26:28;0.90;;;0.90;;
4214;SDS011;2121;48.062;7.850;2023-05-10T14:28:53;1.60;;;1.10;;
4214;SDS011;2121;48.062;7.850;2023-05-10T14:31:19;1.20;;;1.10;;
4214;SDS011;2121;48.062;7.850;2023-05-10T14:33:46;1.17;;;1.07;;
4214;SDS011;2121;48.062;7.850;2023-05-10T14:36:12;1.27;;;1.17;;
4214;SDS011;2121;48.062;7.850;2023-05-10T14:38:38;1.17;;;1.07;;
4214;SDS011;2121;48.062;7.850;2023-05-10T14:41:05;2.20;;;1.10;;
4214;SDS011;2121;48.062;7.850;2023-05-10T14:43:31;1.80;;;1.27;;
4214;SDS011;2121;48.062;7.850;2023-05-10T14:45:56;1.17;;;1.10;;
4214;SDS011;2121;48.062;7.850;2023-05-10T14:48:22;1.30;;;1.20;;
4214;SDS011;2121;48.062;7.850;2023-05-10T14:50:48;1.33;;;1.23;;
4214;SDS011;2121;48.062;7.850;2023-05-10T14:53:15;1.30;;;1.20;;
4214;SDS011;2121;48.062;7.850;2023-05-10T14:55:41;1.63;;;1.20;;
4214;SDS011;2121;48.062;7.850;2023-05-10T14:58:07;1.13;;;1.03;;
4214;SDS011;2121;48.062;7.850;2023-05-10T15:00:32;1.60;;;1.50;;
4214;SDS011;2121;48.062;7.850;2023-05-10T15:02:58;1.10;;;1.03;;
4214;SDS011;2121;48.062;7.850;2023-05-10T15:05:24;3.07;;;1.17;;
4214;SDS011;2121;48.062;7.850;2023-05-10T15:07:50;0.90;;;0.90;;
4214;SDS011;2121;48.062;7.850;2023-05-10T15:10:15;1.30;;;1.20;;
4214;SDS011;2121;48.062;7.850;2023-05-10T15:12:41;1.27;;;1.27;;
4214;SDS011;2121;48.062;7.850;2023-05-10T15:15:07;1.30;;;1.10;;
4214;SDS011;2121;48.062;7.850;2023-05-10T15:17:33;1.47;;;1.20;;
4214;SDS011;2121;48.062;7.850;2023-05-10T15:19:59;1.20;;;1.10;;
4214;SDS011;2121;48.062;7.850;2023-05-10T15:22:28;1.20;;;0.97;;
4214;SDS011;2121;48.062;7.850;2023-05-10T15:24:56;1.20;;;1.00;;
4214;SDS011;2121;48.062;7.850;2023-05-10T15:27:23;1.13;;;1.07;;
4214;SDS011;2121;48.062;7.850;2023-05-10T15:29:50;1.23;;;1.00;;
4214;SDS011;2121;48.062;7.850;2023-05-10T15:32:16;1.20;;;1.10;;
4214;SDS011;2121;48.062;7.850;2023-05-10T15:34:42;1.30;;;1.00;;
4214;SDS011;2121;48.062;7.850;2023-05-10T15:37:08;1.00;;;1.00;;
4214;SDS011;2121;48.062;7.850;2023-05-10T15:39:34;1.27;;;1.20;;
4214;SDS011;2121;48.062;7.850;2023-05-10T15:42:00;1.00;;;1.00;;
4214;SDS011;2121;48.062;7.850;2023-05-10T15:44:26;1.83;;;1.13;;
4214;SDS011;2121;48.062;7.850;2023-05-10T15:46:52;1.00;;;1.00;;
4214;SDS011;2121;48.062;7.850;2023-05-10T15:49:17;0.90;;;0.90;;
4214;SDS011;2121;48.062;7.850;2023-05-10T15:51:43;1.93;;;1.30;;
4214;SDS011;2121;48.062;7.850;2023-05-10T15:54:09;0.90;;;0.90;;
4214;SDS011;2121;48.062;7.850;2023-05-10T15:56:34;1.43;;;1.33;;
4214;SDS011;2121;48.062;7.850;2023-05-10T15:59:00;1.40;;;1.13;;